Time;durP1;ratioP1;P1;durP2;ratioP2;P2;SDS_P1;SDS_P2;PMS_P1;PMS_P2;Temp;Humidity;BMP_temperature;BMP_pressure;BME280_temperature;BME280_humidity;BME280_pressure;Samples;Min_cycle;Max_cycle;Signal;HPM_P1;HPM_P2
2023/01/26 03:58:04;;;;;;;90.18;31.27;;;-0.30;99.90;;;;;;5159150;27;20596;-79
2023/01/26 04:00:31;;;;;;;110.65;35.58;;;-0.40;99.90;;;;;;5142358;27;20229;-80
2023/01/26 04:08:26;;;;;;;126.85;43.67;;;0.10;99.90;;;;;;5157804;27;20200;-82
2023/01/26 04:10:54;;;;;;;109.00;37.20;;;0.10;99.90;;;;;;5150100;27;20229;-81
2023/01/26 04:21:39;;;;;;;117.13;41.88;;;0.50;99.90;;;;;;5160603;22;20315;-82
2023/01/26 04:24:08;;;;;;;104.45;40.85;;;0.60;99.90;;;;;;5057462;28;20237;-81
2023/01/26 04:26:36;;;;;;;120.35;43.63;;;0.70;99.90;;;;;;5072941;28;20197;-80
2023/01/26 04:29:08;;;;;;;106.32;38.58;;;0.60;99.90;;;;;;5069068;28;20315;-79
2023/01/26 04:31:36;;;;;;;116.28;45.33;;;0.50;99.90;;;;;;5074528;28;20218;-80
2023/01/26 04:34:04;;;;;;;105.90;40.85;;;0.60;99.90;;;;;;5075282;28;20238;-81
2023/01/26 04:36:32;;;;;;;104.32;40.50;;;0.70;99.90;;;;;;5067802;28;20289;-80
2023/01/26 04:38:59;;;;;;;113.50;41.97;;;0.80;99.90;;;;;;5072890;28;20725;-80
2023/01/26 04:41:25;;;;;;;99.65;36.30;;;0.80;99.90;;;;;;5072550;28;20330;-79
2023/01/26 04:43:52;;;;;;;93.68;37.15;;;0.80;99.90;;;;;;5073048;28;20738;-79
2023/01/26 04:46:21;;;;;;;96.78;39.38;;;0.80;99.90;;;;;;5068676;28;20713;-79
2023/01/26 04:48:47;;;;;;;100.32;37.65;;;0.80;99.90;;;;;;5073058;28;20264;-80
2023/01/26 04:51:16;;;;;;;104.20;42.63;;;0.90;99.90;;;;;;5073084;28;20307;-78
2023/01/26 04:53:43;;;;;;;92.47;40.38;;;1.00;99.90;;;;;;5068572;28;20206;-80
2023/01/26 04:56:24;;;;;;;82.55;34.47;;;0.90;99.90;;;;;;5059979;28;20216;-78
2023/01/26 04:58:51;;;;;;;93.80;37.55;;;0.90;99.90;;;;;;5071647;28;20543;-79
2023/01/26 05:01:20;;;;;;;89.57;34.72;;;1.00;99.90;;;;;;5071295;28;20298;-79
2023/01/26 05:03:47;;;;;;;92.50;35.13;;;0.90;99.90;;;;;;5072376;28;20201;-79
2023/01/26 05:06:14;;;;;;;82.47;33.00;;;1.00;99.90;;;;;;5071212;28;20204;-78
2023/01/26 05:08:42;;;;;;;87.37;33.80;;;1.00;99.90;;;;;;5060495;28;20630;-79
2023/01/26 05:11:08;;;;;;;92.65;36.60;;;1.00;99.90;;;;;;5058718;28;20515;-81
2023/01/26 05:13:38;;;;;;;90.88;35.30;;;1.00;99.90;;;;;;5056086;28;20283;-80
2023/01/26 05:16:06;;;;;;;87.90;34.90;;;1.00;99.90;;;;;;5056524;28;20205;-81
2023/01/26 05:18:34;;;;;;;93.63;37.30;;;1.10;99.90;;;;;;5053473;28;20228;-80
2023/01/26 05:21:01;;;;;;;72.60;32.55;;;1.00;99.90;;;;;;5058444;28;20227;-80
2023/01/26 05:23:28;;;;;;;68.80;29.27;;;1.00;99.90;;;;;;5055999;28;20292;-80
2023/01/26 05:25:55;;;;;;;71.70;28.08;;;1.00;99.90;;;;;;5059087;28;20207;-81
2023/01/26 05:28:22;;;;;;;61.17;28.42;;;1.10;99.90;;;;;;5059351;28;20219;-80
2023/01/26 05:30:48;;;;;;;60.55;26.25;;;1.10;99.90;;;;;;5058266;28;20268;-81
2023/01/26 05:33:20;;;;;;;63.63;29.10;;;1.10;99.90;;;;;;5059985;28;20688;-82
2023/01/26 05:35:49;;;;;;;67.55;27.63;;;1.00;99.90;;;;;;5056736;28;20519;-81
2023/01/26 05:38:16;;;;;;;68.47;28.55;;;1.00;99.90;;;;;;5058583;28;20240;-82
2023/01/26 05:40:43;;;;;;;63.75;28.35;;;1.10;99.90;;;;;;5058754;28;20217;-81
2023/01/26 05:43:10;;;;;;;71.60;29.77;;;1.00;99.90;;;;;;5059674;28;20226;-82
2023/01/26 05:45:37;;;;;;;78.10;32.17;;;1.10;99.90;;;;;;5063926;28;20257;-83
2023/01/26 05:48:04;;;;;;;64.30;26.05;;;1.00;99.90;;;;;;5059373;28;20204;-83
2023/01/26 05:50:31;;;;;;;61.70;28.65;;;1.10;99.90;;;;;;5055099;28;20316;-82
2023/01/26 05:53:01;;;;;;;56.25;27.88;;;1.10;99.90;;;;;;5056095;28;20717;-82
2023/01/26 05:55:29;;;;;;;58.38;26.60;;;1.10;99.90;;;;;;5054965;28;20259;-82
2023/01/26 05:57:55;;;;;;;66.22;28.13;;;1.10;99.90;;;;;;5055944;28;20225;-81
2023/01/26 06:00:23;;;;;;;58.55;27.17;;;1.10;99.90;;;;;;5054599;28;20217;-82
2023/01/26 06:02:50;;;;;;;60.70;25.73;;;1.00;99.90;;;;;;5054081;28;20205;-80
2023/01/26 06:05:17;;;;;;;56.10;25.02;;;1.10;99.90;;;;;;5057090;28;20268;-82
2023/01/26 06:07:44;;;;;;;60.10;26.35;;;1.10;99.90;;;;;;5060019;28;20227;-81
2023/01/26 06:10:12;;;;;;;62.50;25.77;;;1.20;99.90;;;;;;5056241;28;20772;-80
2023/01/26 06:12:41;;;;;;;57.10;26.65;;;1.20;99.90;;;;;;5056734;28;20482;-81
2023/01/26 06:15:11;;;;;;;54.03;26.25;;;1.10;99.90;;;;;;5056498;28;20296;-80
2023/01/26 06:17:38;;;;;;;54.72;26.60;;;1.20;99.90;;;;;;5047553;28;20198;-81
2023/01/26 06:20:06;;;;;;;62.78;28.05;;;1.20;99.90;;;;;;5034735;28;20239;-80
2023/01/26 06:22:32;;;;;;;58.53;27.42;;;1.20;99.90;;;;;;5037114;28;20190;-82
2023/01/26 06:24:59;;;;;;;49.28;23.02;;;1.20;99.90;;;;;;5037075;28;20248;-82
2023/01/26 06:27:28;;;;;;;64.32;26.30;;;1.20;99.90;;;;;;5052617;28;20218;-80
2023/01/26 06:29:55;;;;;;;55.92;27.23;;;1.20;99.90;;;;;;5055176;28;20221;-80
2023/01/26 06:32:22;;;;;;;56.33;24.38;;;1.30;99.90;;;;;;5056510;28;20205;-81
2023/01/26 06:34:49;;;;;;;48.73;22.90;;;1.20;99.90;;;;;;5055646;28;20251;-81
2023/01/26 06:37:15;;;;;;;42.10;20.65;;;1.20;99.90;;;;;;5054307;28;20458;-81
2023/01/26 06:39:42;;;;;;;44.83;22.60;;;1.20;99.90;;;;;;5052123;28;20296;-81
2023/01/26 06:42:09;;;;;;;47.60;21.77;;;1.20;99.90;;;;;;5045678;28;20478;-81
2023/01/26 06:44:37;;;;;;;47.55;21.30;;;1.30;99.90;;;;;;5053712;28;20612;-80
2023/01/26 06:47:05;;;;;;;54.40;23.90;;;1.30;99.90;;;;;;5037515;28;20781;-81
2023/01/26 06:49:33;;;;;;;53.30;23.90;;;1.30;99.90;;;;;;5042642;28;20514;-81
2023/01/26 06:52:05;;;;;;;48.40;24.10;;;1.20;99.90;;;;;;5056083;28;20516;-80
2023/01/26 06:54:31;;;;;;;50.30;22.67;;;1.20;99.90;;;;;;5048591;28;20289;-81
2023/01/26 06:56:58;;;;;;;50.17;23.17;;;1.20;99.90;;;;;;5061439;28;20208;-82
2023/01/26 06:59:25;;;;;;;47.45;20.27;;;1.30;99.90;;;;;;5051509;28;20443;-82
2023/01/26 07:01:53;;;;;;;58.03;23.25;;;1.20;99.90;;;;;;5065198;28;20249;-82
2023/01/26 07:04:20;;;;;;;45.33;19.97;;;1.30;99.90;;;;;;5065662;28;20235;-81
2023/01/26 07:06:47;;;;;;;45.97;21.85;;;1.20;99.90;;;;;;5060347;28;20492;-81
2023/01/26 07:09:14;;;;;;;43.95;20.80;;;1.20;99.90;;;;;;5063648;28;20220;-81
2023/01/26 07:11:41;;;;;;;42.85;19.95;;;1.30;99.90;;;;;;5063391;28;20265;-81
2023/01/26 07:14:08;;;;;;;51.17;24.05;;;1.20;99.90;;;;;;5064838;28;20224;-82
2023/01/26 07:16:36;;;;;;;48.20;20.60;;;1.30;99.90;;;;;;5058752;28;20513;-81
2023/01/26 07:19:07;;;;;;;47.00;19.05;;;1.30;99.90;;;;;;5064093;28;20228;-81
2023/01/26 07:21:34;;;;;;;50.60;21.83;;;1.30;99.90;;;;;;5061885;28;20649;-81
2023/01/26 07:24:01;;;;;;;53.97;23.80;;;1.30;99.90;;;;;;5063562;28;20428;-81
2023/01/26 07:26:28;;;;;;;41.53;20.73;;;1.40;99.90;;;;;;5062282;28;20225;-81
2023/01/26 07:28:55;;;;;;;41.55;19.92;;;1.40;99.90;;;;;;5061129;28;20240;-81
2023/01/26 07:31:22;;;;;;;51.47;22.38;;;1.50;99.90;;;;;;5041859;28;20226;-81
2023/01/26 07:33:49;;;;;;;41.42;18.73;;;1.40;99.90;;;;;;5044062;28;20293;-80
2023/01/26 07:36:17;;;;;;;43.70;19.87;;;1.40;99.90;;;;;;5062104;28;20209;-79
2023/01/26 07:38:44;;;;;;;45.60;20.97;;;1.50;99.90;;;;;;5065224;28;20472;-81
2023/01/26 07:41:12;;;;;;;47.50;20.42;;;1.50;99.90;;;;;;5061113;28;20479;-81
2023/01/26 07:43:40;;;;;;;41.88;19.75;;;1.50;99.90;;;;;;5065800;28;20205;-79
2023/01/26 07:46:09;;;;;;;39.03;18.37;;;1.50;99.90;;;;;;5068237;28;20197;-80
2023/01/26 07:48:37;;;;;;;38.38;19.48;;;1.50;99.90;;;;;;5065031;28;20535;-80
2023/01/26 07:51:05;;;;;;;32.63;17.80;;;1.50;99.90;;;;;;5064816;28;20218;-81
2023/01/26 07:53:38;;;;;;;43.08;20.52;;;1.50;99.90;;;;;;5066904;28;20447;-83
2023/01/26 07:56:10;;;;;;;38.60;19.30;;;1.50;99.90;;;;;;5058600;28;20251;-82
2023/01/26 07:58:37;;;;;;;40.27;17.33;;;1.50;99.90;;;;;;5070722;28;20200;-82
2023/01/26 08:01:09;;;;;;;37.35;19.92;;;1.60;99.90;;;;;;5065593;28;20964;-82
2023/01/26 08:03:36;;;;;;;38.23;16.93;;;1.60;99.90;;;;;;5063229;28;20202;-83
2023/01/26 08:06:03;;;;;;;38.13;16.90;;;1.60;99.90;;;;;;5064093;28;20483;-82
2023/01/26 08:08:31;;;;;;;36.80;18.40;;;1.60;99.90;;;;;;5062973;28;20491;-82
2023/01/26 08:11:00;;;;;;;39.95;18.73;;;1.60;99.90;;;;;;5060218;28;20570;-82
2023/01/26 08:13:27;;;;;;;41.17;19.10;;;1.60;99.90;;;;;;5062546;28;20237;-82
2023/01/26 08:15:54;;;;;;;41.08;20.58;;;1.60;99.90;;;;;;5061291;28;20554;-82
2023/01/26 08:18:21;;;;;;;46.93;19.77;;;1.60;99.90;;;;;;5049928;28;20650;-82
2023/01/26 08:20:52;;;;;;;45.03;19.98;;;1.60;99.90;;;;;;5057229;28;20502;-82
2023/01/26 08:23:19;;;;;;;34.15;17.58;;;1.70;99.90;;;;;;5062517;28;20646;-80
2023/01/26 08:25:46;;;;;;;40.78;20.60;;;1.70;99.90;;;;;;5060447;28;20241;-82
2023/01/26 08:28:14;;;;;;;40.85;20.30;;;1.70;99.90;;;;;;5048551;28;20228;-81
2023/01/26 08:30:41;;;;;;;40.28;19.85;;;1.70;99.90;;;;;;5056681;28;20304;-80
2023/01/26 08:33:08;;;;;;;38.75;20.67;;;1.60;99.90;;;;;;5060378;28;20273;-80
2023/01/26 08:35:35;;;;;;;37.15;18.38;;;1.70;99.90;;;;;;5061942;28;20221;-79
2023/01/26 08:38:02;;;;;;;44.40;20.95;;;1.70;99.90;;;;;;5051551;28;20528;-76
2023/01/26 08:40:29;;;;;;;46.23;21.87;;;1.80;99.90;;;;;;5048841;28;20249;-78
2023/01/26 08:42:59;;;;;;;43.20;22.10;;;1.80;99.90;;;;;;5049752;28;20521;-77
2023/01/26 08:45:28;;;;;;;43.50;20.77;;;1.90;99.90;;;;;;5055052;28;20526;-77
2023/01/26 08:47:54;;;;;;;47.37;23.57;;;2.00;99.90;;;;;;5056477;28;20225;-81
2023/01/26 08:50:22;;;;;;;48.03;21.10;;;2.00;99.90;;;;;;5060484;28;20539;-80
2023/01/26 08:52:48;;;;;;;48.07;25.00;;;2.00;99.90;;;;;;5057655;28;20497;-81
2023/01/26 08:55:15;;;;;;;50.83;20.00;;;1.90;99.90;;;;;;5054600;28;20827;-80
2023/01/26 08:57:43;;;;;;;50.33;21.50;;;2.00;99.90;;;;;;5056263;28;20464;-81
2023/01/26 09:00:14;;;;;;;46.37;22.23;;;2.10;99.90;;;;;;5042318;28;20460;-83
2023/01/26 09:02:42;;;;;;;53.60;24.00;;;1.90;99.90;;;;;;5040239;28;20499;-82
2023/01/26 09:05:10;;;;;;;44.50;21.97;;;2.00;99.90;;;;;;5060876;28;21025;-81
2023/01/26 09:07:36;;;;;;;52.77;23.90;;;2.00;99.90;;;;;;5051808;28;20484;-83
2023/01/26 09:10:04;;;;;;;49.60;25.43;;;2.10;99.90;;;;;;5059318;28;20910;-82
2023/01/26 09:12:31;;;;;;;48.90;22.60;;;2.10;99.90;;;;;;5058469;28;20460;-82
2023/01/26 09:14:58;;;;;;;42.50;21.57;;;2.20;99.90;;;;;;5058742;28;20964;-82
2023/01/26 09:17:25;;;;;;;43.60;21.80;;;2.20;99.90;;;;;;5058090;28;20453;-82
2023/01/26 09:19:53;;;;;;;48.70;24.30;;;2.30;99.90;;;;;;5058584;28;20460;-82
2023/01/26 09:22:20;;;;;;;52.20;26.93;;;2.30;99.90;;;;;;5058844;28;20483;-82
2023/01/26 09:24:47;;;;;;;50.37;25.03;;;2.30;99.90;;;;;;5058338;28;20451;-82
2023/01/26 09:27:13;;;;;;;52.22;25.52;;;2.30;99.90;;;;;;5057427;28;20458;-82
2023/01/26 09:29:40;;;;;;;51.40;24.00;;;2.30;99.90;;;;;;5057047;28;20579;-82
2023/01/26 09:32:07;;;;;;;50.10;24.97;;;2.30;99.90;;;;;;5058341;28;20508;-82
2023/01/26 09:34:34;;;;;;;49.53;23.00;;;2.30;99.90;;;;;;5058165;28;20523;-82
2023/01/26 09:37:02;;;;;;;54.43;25.00;;;2.30;99.90;;;;;;5058579;28;20448;-82
2023/01/26 09:39:29;;;;;;;58.17;26.27;;;2.30;99.90;;;;;;5061977;28;20944;-83
2023/01/26 09:42:16;;;;;;;53.43;23.10;;;2.30;99.90;;;;;;5058460;28;20551;-82
2023/01/26 09:44:51;;;;;;;49.40;24.67;;;2.30;99.90;;;;;;5057862;28;20432;-82
2023/01/26 09:47:26;;;;;;;43.07;21.33;;;2.20;99.90;;;;;;5064538;28;20566;-83
2023/01/26 09:49:59;;;;;;;58.20;25.80;;;2.20;99.90;;;;;;5055669;28;20455;-82
2023/01/26 09:52:30;;;;;;;42.10;22.60;;;2.20;99.90;;;;;;5056399;28;20442;-82
2023/01/26 09:55:00;;;;;;;42.27;22.90;;;2.30;99.90;;;;;;5056946;28;21165;-82
2023/01/26 09:57:32;;;;;;;48.20;21.83;;;2.30;99.90;;;;;;5056507;28;20452;-82
2023/01/26 10:00:06;;;;;;;47.50;21.77;;;2.40;99.90;;;;;;5055728;28;20458;-82
2023/01/26 10:02:44;;;;;;;41.20;20.40;;;2.40;99.90;;;;;;5056923;28;20448;-82
2023/01/26 10:05:20;;;;;;;43.47;20.07;;;2.40;99.90;;;;;;5056193;28;20450;-81
2023/01/26 10:07:48;;;;;;;44.97;20.97;;;2.40;99.90;;;;;;5056928;28;20979;-82
2023/01/26 10:10:20;;;;;;;41.20;21.43;;;2.30;99.90;;;;;;5055187;28;20505;-82
2023/01/26 10:12:50;;;;;;;43.77;22.73;;;2.40;99.90;;;;;;5057735;28;20508;-81
2023/01/26 10:15:28;;;;;;;40.90;20.63;;;2.40;99.90;;;;;;5058321;28;20463;-82
2023/01/26 10:17:55;;;;;;;37.03;18.43;;;2.40;99.90;;;;;;5057368;28;20452;-82
2023/01/26 10:20:31;;;;;;;42.73;19.50;;;2.40;99.90;;;;;;5057609;28;20502;-79
2023/01/26 10:23:04;;;;;;;45.00;21.00;;;2.40;99.90;;;;;;5058757;28;20459;-82
2023/01/26 10:25:36;;;;;;;48.37;21.43;;;2.50;99.90;;;;;;5058584;28;20456;-82
2023/01/26 10:28:12;;;;;;;45.43;20.83;;;2.40;99.90;;;;;;5058334;28;20487;-82
2023/01/26 10:30:40;;;;;;;36.87;18.53;;;2.30;99.90;;;;;;5058540;28;20978;-82
2023/01/26 10:33:15;;;;;;;38.77;17.60;;;2.40;99.90;;;;;;5057702;28;20448;-83
2023/01/26 10:35:42;;;;;;;38.83;16.20;;;2.30;99.90;;;;;;5067233;28;20431;-83
2023/01/26 10:38:28;;;;;;;37.60;18.60;;;2.30;99.90;;;;;;5062632;28;20448;-83
2023/01/26 10:40:55;;;;;;;33.63;18.20;;;2.30;99.90;;;;;;5063216;28;20512;-84
2023/01/26 10:43:24;;;;;;;37.73;19.60;;;2.30;99.90;;;;;;5061325;28;20928;-83
2023/01/26 10:45:51;;;;;;;38.23;18.40;;;2.30;99.90;;;;;;5063938;28;20444;-84
2023/01/26 10:48:20;;;;;;;37.37;19.43;;;2.30;99.90;;;;;;5051916;28;20487;-83
2023/01/26 10:50:48;;;;;;;40.30;17.73;;;2.40;99.90;;;;;;5065135;28;20464;-83
2023/01/26 10:53:17;;;;;;;32.30;17.97;;;2.30;99.90;;;;;;5055731;28;20456;-83
2023/01/26 10:55:59;;;;;;;33.20;17.57;;;2.40;99.90;;;;;;5067730;28;20456;-82
2023/01/26 10:58:44;;;;;;;35.50;16.60;;;2.50;99.90;;;;;;5063600;28;20906;-82
2023/01/26 11:01:14;;;;;;;28.63;15.23;;;2.60;99.90;;;;;;5064313;28;20484;-82
2023/01/26 11:03:42;;;;;;;28.00;16.00;;;2.50;99.90;;;;;;5064300;28;20501;-82
2023/01/26 11:06:14;;;;;;;31.53;15.47;;;2.50;99.90;;;;;;5057299;28;20464;-82
2023/01/26 11:08:42;;;;;;;32.20;16.70;;;2.60;99.90;;;;;;5058137;28;20507;-82
2023/01/26 11:11:25;;;;;;;33.97;16.37;;;2.50;99.90;;;;;;5057971;28;20476;-82
2023/01/26 11:14:11;;;;;;;32.90;15.20;;;2.50;99.90;;;;;;5058923;28;20443;-83
2023/01/26 11:16:38;;;;;;;27.47;16.17;;;2.60;99.90;;;;;;5056762;28;20471;-83
2023/01/26 11:19:12;;;;;;;33.13;16.53;;;2.60;99.90;;;;;;5046015;28;20515;-83
2023/01/26 11:21:43;;;;;;;34.23;13.17;;;2.70;99.90;;;;;;5045192;28;21026;-83
2023/01/26 11:24:16;;;;;;;38.93;15.97;;;2.80;99.90;;;;;;5042905;28;20480;-82
2023/01/26 11:27:12;;;;;;;29.97;15.10;;;2.90;99.90;;;;;;5057369;28;21003;-82
2023/01/26 11:29:51;;;;;;;25.47;13.93;;;2.90;99.90;;;;;;5069920;28;20499;-83
2023/01/26 11:32:24;;;;;;;28.00;15.20;;;2.80;99.90;;;;;;5066480;28;20511;-83
2023/01/26 11:35:03;;;;;;;30.33;15.30;;;2.80;99.90;;;;;;5063003;28;20468;-83
2023/01/26 11:37:43;;;;;;;24.33;14.17;;;2.80;99.90;;;;;;5053773;28;20484;-83
2023/01/26 11:40:26;;;;;;;22.93;12.93;;;2.90;99.90;;;;;;5048331;28;20564;-83
2023/01/26 11:43:12;;;;;;;24.00;14.03;;;2.80;99.90;;;;;;5060406;28;20465;-83
2023/01/26 11:45:56;;;;;;;25.50;14.17;;;2.80;99.90;;;;;;5060838;28;20535;-83
2023/01/26 11:48:29;;;;;;;28.10;13.53;;;2.80;99.90;;;;;;5056548;28;20499;-82
2023/01/26 11:51:02;;;;;;;24.73;14.07;;;2.80;99.90;;;;;;5056665;28;20471;-82
2023/01/26 11:53:55;;;;;;;23.73;12.80;;;2.70;99.90;;;;;;5059223;28;20503;-83
2023/01/26 11:56:35;;;;;;;25.23;14.27;;;2.80;99.90;;;;;;5046084;28;20959;-83
2023/01/26 11:59:10;;;;;;;24.50;14.30;;;2.60;99.90;;;;;;5060475;28;20528;-82
2023/01/26 12:01:41;;;;;;;25.07;14.40;;;2.50;99.90;;;;;;5057766;28;20474;-81
2023/01/26 12:04:16;;;;;;;20.50;13.20;;;2.50;99.90;;;;;;5055867;28;20466;-84
2023/01/26 12:06:46;;;;;;;26.13;14.73;;;2.50;99.90;;;;;;5059010;28;20428;-82
2023/01/26 12:09:17;;;;;;;25.27;14.17;;;2.50;99.90;;;;;;5055318;28;20476;-82
2023/01/26 12:11:50;;;;;;;25.93;14.80;;;2.60;99.90;;;;;;5038392;28;20457;-83
2023/01/26 12:14:25;;;;;;;23.70;13.30;;;2.70;99.90;;;;;;5044640;28;20484;-82
2023/01/26 12:17:13;;;;;;;23.90;12.70;;;2.70;99.90;;;;;;5058682;28;20446;-82
2023/01/26 12:19:47;;;;;;;26.77;13.20;;;2.80;99.90;;;;;;5062506;28;20463;-83
2023/01/26 12:22:21;;;;;;;21.80;12.00;;;2.80;99.90;;;;;;5063800;28;20467;-82
2023/01/26 12:24:54;;;;;;;17.23;11.17;;;2.80;99.90;;;;;;5065750;28;20470;-83
2023/01/26 12:27:28;;;;;;;23.63;13.80;;;2.80;99.90;;;;;;5074691;28;20501;-84
2023/01/26 12:30:04;;;;;;;20.10;11.20;;;2.90;99.90;;;;;;5072020;28;20477;-84
2023/01/26 12:32:31;;;;;;;23.20;12.87;;;2.90;99.90;;;;;;5072212;28;20455;-84
2023/01/26 12:34:58;;;;;;;21.70;11.70;;;2.90;99.90;;;;;;5071510;28;20905;-85
2023/01/26 12:37:47;;;;;;;16.60;11.27;;;2.90;99.90;;;;;;5070536;28;20851;-83
2023/01/26 12:40:29;;;;;;;16.63;11.13;;;3.00;99.90;;;;;;5069247;28;20459;-84
2023/01/26 12:43:11;;;;;;;18.03;8.77;;;3.00;99.90;;;;;;5067979;28;20436;-83
2023/01/26 12:45:42;;;;;;;17.80;8.17;;;3.00;99.90;;;;;;5067636;28;20460;-84
2023/01/26 12:48:15;;;;;;;12.10;9.10;;;3.00;99.90;;;;;;5065882;28;20460;-84
2023/01/26 12:50:49;;;;;;;11.67;8.03;;;2.90;99.90;;;;;;5067538;28;20448;-83
2023/01/26 12:53:21;;;;;;;10.90;7.80;;;3.00;99.90;;;;;;5065590;28;20459;-82
2023/01/26 12:55:52;;;;;;;13.60;8.40;;;3.10;99.90;;;;;;5065731;28;20777;-83
2023/01/26 12:58:23;;;;;;;12.03;7.90;;;3.10;99.90;;;;;;5065322;28;20532;-83
2023/01/26 13:00:58;;;;;;;13.33;9.50;;;3.10;99.90;;;;;;5066765;28;20476;-83
2023/01/26 13:03:29;;;;;;;12.93;7.63;;;3.20;99.90;;;;;;5067143;28;20473;-84
2023/01/26 13:05:58;;;;;;;8.73;6.47;;;3.20;99.90;;;;;;5058766;28;20460;-84
2023/01/26 13:08:52;;;;;;;12.23;7.20;;;3.20;99.90;;;;;;5050938;28;20504;-82
2023/01/26 13:11:44;;;;;;;9.57;7.40;;;3.10;99.90;;;;;;5063346;28;20515;-84
2023/01/26 13:14:33;;;;;;;10.93;7.77;;;3.00;99.90;;;;;;5065734;28;20473;-83
2023/01/26 13:17:48;;;;;;;12.90;7.57;;;3.10;99.90;;;;;;5070817;28;20821;-84
2023/01/26 13:20:24;;;;;;;11.77;7.47;;;3.10;99.90;;;;;;5069351;28;20471;-82
2023/01/26 13:22:51;;;;;;;12.80;7.43;;;3.10;99.90;;;;;;5052657;28;20433;-83
2023/01/26 13:25:20;;;;;;;13.40;7.20;;;3.10;99.90;;;;;;5064266;28;20494;-84
2023/01/26 13:27:56;;;;;;;11.40;7.70;;;3.00;99.90;;;;;;5067889;28;20554;-83
2023/01/26 13:30:45;;;;;;;21.10;11.77;;;3.00;99.90;;;;;;5070800;28;20503;-82
2023/01/26 13:33:21;;;;;;;14.07;8.80;;;3.10;99.90;;;;;;5046854;28;20453;-82
2023/01/26 13:35:52;;;;;;;14.53;8.03;;;3.00;99.90;;;;;;5051810;28;20421;-82
2023/01/26 13:38:36;;;;;;;15.00;9.30;;;3.00;99.90;;;;;;5068786;28;20456;-82
2023/01/26 13:41:09;;;;;;;15.33;11.60;;;3.00;99.90;;;;;;5068639;28;21022;-83
2023/01/26 13:43:42;;;;;;;18.70;10.13;;;3.10;99.90;;;;;;5069177;28;20444;-83
2023/01/26 13:46:20;;;;;;;26.77;10.80;;;3.10;99.90;;;;;;5068807;28;20483;-83
2023/01/26 13:48:53;;;;;;;21.17;10.20;;;3.10;99.90;;;;;;5052061;28;20495;-82
2023/01/26 13:51:24;;;;;;;16.63;10.60;;;3.10;99.90;;;;;;5069317;28;20538;-84
2023/01/26 13:54:00;;;;;;;20.37;11.17;;;3.10;99.90;;;;;;5069156;28;20456;-84
2023/01/26 13:56:31;;;;;;;18.00;11.53;;;3.10;99.90;;;;;;5068561;28;20421;-83
2023/01/26 13:59:14;;;;;;;25.70;9.97;;;3.10;99.90;;;;;;5068688;28;20458;-83
2023/01/26 14:01:44;;;;;;;24.03;10.33;;;3.10;99.90;;;;;;5068111;28;20476;-82
2023/01/26 14:04:20;;;;;;;22.30;14.03;;;3.20;99.90;;;;;;5068653;28;20463;-85
2023/01/26 14:06:52;;;;;;;20.47;11.30;;;3.10;99.90;;;;;;5068345;28;20509;-82
2023/01/26 14:09:22;;;;;;;23.07;13.57;;;3.00;99.90;;;;;;5067824;28;20476;-83
2023/01/26 14:12:00;;;;;;;20.20;12.03;;;3.10;99.90;;;;;;5051330;28;20469;-83
2023/01/26 14:14:31;;;;;;;22.10;12.00;;;3.10;99.90;;;;;;5070981;28;20443;-83
2023/01/26 14:17:04;;;;;;;25.30;13.10;;;3.20;99.90;;;;;;5071214;28;20478;-83
2023/01/26 14:19:40;;;;;;;23.93;12.60;;;3.20;99.90;;;;;;5069743;28;20479;-85
2023/01/26 14:22:13;;;;;;;24.07;14.40;;;3.20;99.90;;;;;;5077263;28;20494;-84
2023/01/26 14:24:42;;;;;;;26.37;12.20;;;3.30;99.90;;;;;;5069376;28;20460;-84
2023/01/26 14:27:32;;;;;;;23.80;12.83;;;3.30;99.90;;;;;;5067642;28;20444;-80
2023/01/26 14:30:03;;;;;;;17.70;11.33;;;3.30;99.90;;;;;;5065102;28;20530;-81
2023/01/26 14:32:33;;;;;;;17.83;11.13;;;3.40;99.90;;;;;;5066291;28;20478;-83
2023/01/26 14:35:05;;;;;;;25.87;13.33;;;3.40;99.90;;;;;;5067154;28;20448;-82
2023/01/26 14:37:35;;;;;;;24.60;13.27;;;3.40;99.90;;;;;;5066784;28;20428;-83
2023/01/26 14:40:22;;;;;;;23.50;11.90;;;3.50;99.90;;;;;;5048252;28;20804;-83
2023/01/26 14:45:35;;;;;;;24.87;11.63;;;3.70;99.90;;;;;;5068329;28;20442;-83
2023/01/26 14:48:11;;;;;;;19.30;11.03;;;3.80;99.90;;;;;;5068550;28;20564;-84
2023/01/26 14:50:45;;;;;;;22.37;12.70;;;3.80;99.90;;;;;;5068815;28;20485;-83
2023/01/26 14:53:19;;;;;;;29.97;13.03;;;3.80;99.90;;;;;;5067886;28;20471;-83
2023/01/26 14:55:50;;;;;;;27.13;12.60;;;3.80;99.90;;;;;;5066938;28;20533;-83
2023/01/26 14:58:24;;;;;;;21.30;12.53;;;3.90;99.90;;;;;;5069006;28;20482;-82
2023/01/26 15:00:52;;;;;;;24.00;12.17;;;3.90;99.90;;;;;;5067816;28;20490;-83
2023/01/26 15:03:26;;;;;;;23.80;11.80;;;3.90;99.90;;;;;;5067309;28;20507;-83
2023/01/26 15:06:30;;;;;;;22.00;12.90;;;3.90;99.90;;;;;;5068573;28;20489;-83
2023/01/26 15:09:10;;;;;;;24.50;12.50;;;4.00;99.90;;;;;;5067315;28;20501;-83
2023/01/26 15:14:42;;;;;;;25.90;10.33;;;3.90;99.90;;;;;;5067528;28;20435;-84
2023/01/26 15:17:33;;;;;;;24.17;11.37;;;4.00;99.90;;;;;;5067154;28;20450;-83
2023/01/26 15:20:05;;;;;;;20.57;11.80;;;4.00;99.90;;;;;;5067113;28;20456;-83
2023/01/26 15:22:44;;;;;;;29.00;13.47;;;4.00;99.90;;;;;;5049054;28;20468;-83
2023/01/26 15:25:24;;;;;;;23.23;10.57;;;4.10;99.90;;;;;;5069073;28;20441;-82
2023/01/26 15:27:55;;;;;;;25.63;12.87;;;4.10;99.90;;;;;;5068224;28;20474;-82
2023/01/26 15:33:43;;;;;;;27.27;13.57;;;4.10;99.90;;;;;;5066300;28;20465;-83
2023/01/26 15:36:29;;;;;;;27.53;12.73;;;4.10;99.90;;;;;;5067811;28;20446;-83
2023/01/26 15:39:01;;;;;;;35.70;14.90;;;4.20;99.90;;;;;;5050371;28;20459;-83
2023/01/26 15:44:02;;;;;;;26.63;12.60;;;4.10;99.90;;;;;;5314184;22;21335;-81
2023/01/26 15:46:29;;;;;;;30.80;11.70;;;4.20;99.90;;;;;;5112518;28;20440;-83
2023/01/26 15:48:56;;;;;;;24.73;11.97;;;4.20;99.90;;;;;;5101435;28;20465;-82
2023/01/26 15:51:23;;;;;;;26.07;13.30;;;4.20;99.90;;;;;;5101957;28;20557;-82
2023/01/26 15:53:50;;;;;;;30.40;12.93;;;4.30;99.90;;;;;;5101276;28;20468;-82
2023/01/26 15:56:18;;;;;;;33.43;14.67;;;4.10;99.90;;;;;;5083907;28;20626;-81
2023/01/26 15:58:45;;;;;;;32.87;16.33;;;4.10;99.90;;;;;;5100602;28;20434;-80
2023/01/26 16:01:20;;;;;;;27.40;12.80;;;4.20;99.90;;;;;;5098694;28;20545;-82
2023/01/26 16:03:46;;;;;;;31.10;12.57;;;4.20;99.90;;;;;;5102894;28;20469;-81
2023/01/26 16:06:21;;;;;;;28.20;14.17;;;4.20;99.90;;;;;;5085084;28;20449;-80
2023/01/26 16:09:13;;;;;;;29.27;11.60;;;4.20;99.90;;;;;;5106377;28;20465;-83
2023/01/26 16:11:51;;;;;;;29.83;12.50;;;4.20;99.90;;;;;;5102873;28;20471;-82
2023/01/26 16:14:19;;;;;;;32.60;15.27;;;4.30;99.90;;;;;;5100563;28;20487;-82
2023/01/26 16:16:46;;;;;;;29.27;14.07;;;4.30;99.90;;;;;;5101824;28;20458;-82
2023/01/26 16:19:14;;;;;;;27.57;14.73;;;4.30;99.90;;;;;;5088703;28;20495;-82
2023/01/26 16:21:44;;;;;;;29.57;12.60;;;4.30;99.90;;;;;;5090076;22;20558;-81
2023/01/26 16:24:11;;;;;;;30.53;13.70;;;4.30;99.90;;;;;;5040653;28;20448;-80
2023/01/26 16:26:38;;;;;;;21.80;13.97;;;4.30;99.90;;;;;;5042758;28;20465;-80
2023/01/26 16:29:07;;;;;;;26.37;13.40;;;4.30;99.90;;;;;;5042143;28;20545;-79
2023/01/26 16:31:35;;;;;;;28.83;14.57;;;4.30;99.90;;;;;;5042340;28;20517;-81
2023/01/26 16:34:03;;;;;;;24.73;13.67;;;4.30;99.90;;;;;;5048816;28;20488;-80
2023/01/26 16:36:30;;;;;;;29.23;12.97;;;4.30;99.90;;;;;;5034002;28;20809;-80
2023/01/26 16:38:57;;;;;;;24.80;11.30;;;4.40;99.90;;;;;;5039956;28;20541;-82
2023/01/26 16:41:26;;;;;;;32.17;14.60;;;4.30;99.90;;;;;;5042486;28;20557;-81
2023/01/26 16:43:54;;;;;;;45.93;18.10;;;4.30;99.90;;;;;;5036520;28;20458;-78
2023/01/26 16:46:23;;;;;;;26.10;15.10;;;4.20;99.90;;;;;;5053512;28;20797;-81
2023/01/26 16:48:50;;;;;;;39.13;19.20;;;4.30;99.90;;;;;;5026942;28;20995;-81
2023/01/26 16:51:20;;;;;;;41.47;16.87;;;4.30;99.90;;;;;;5036994;28;20499;-79
2023/01/26 16:53:48;;;;;;;36.30;17.67;;;4.20;99.90;;;;;;5041204;28;20468;-80
2023/01/26 16:56:16;;;;;;;35.10;17.00;;;4.30;99.90;;;;;;5036781;28;20467;-79
2023/01/26 16:58:44;;;;;;;33.23;17.33;;;4.30;99.90;;;;;;5040761;28;20969;-81
2023/01/26 17:01:20;;;;;;;41.67;17.97;;;4.30;99.90;;;;;;5030520;28;20498;-79
2023/01/26 17:03:49;;;;;;;34.97;16.73;;;4.40;99.90;;;;;;5035042;28;20452;-81
2023/01/26 17:06:18;;;;;;;29.90;17.00;;;4.40;99.90;;;;;;5040235;28;20451;-79
2023/01/26 17:08:45;;;;;;;43.40;16.17;;;4.30;99.90;;;;;;5041279;28;20509;-78
2023/01/26 17:11:17;;;;;;;34.87;18.60;;;4.30;99.90;;;;;;5040977;28;20522;-78
2023/01/26 17:13:44;;;;;;;37.00;16.83;;;4.30;99.90;;;;;;5033108;28;20450;-77
2023/01/26 17:16:14;;;;;;;38.70;16.30;;;4.30;99.90;;;;;;5025722;28;20903;-77
2023/01/26 17:18:43;;;;;;;34.47;15.70;;;4.30;99.90;;;;;;5046876;28;20477;-78
2023/01/26 17:21:12;;;;;;;28.17;16.43;;;4.30;99.90;;;;;;5040077;28;20513;-79